sensor_id;sensor_type;location;lat;lon;timestamp;temperature;humidity
55771;DHT22;41687;-33.234;-60.334;2024-01-06T00:01:17;27.30;69.00
55771;DHT22;41687;-33.234;-60.334;2024-01-06T00:03:44;27.20;69.40
55771;DHT22;41687;-33.234;-60.334;2024-01-06T00:06:13;27.30;69.80
55771;DHT22;41687;-33.234;-60.334;2024-01-06T00:08:41;27.30;70.40
55771;DHT22;41687;-33.234;-60.334;2024-01-06T00:11:08;27.20;70.90
55771;DHT22;41687;-33.234;-60.334;2024-01-06T00:13:36;27.20;71.10
55771;DHT22;41687;-33.234;-60.334;2024-01-06T00:16:04;27.20;71.40
55771;DHT22;41687;-33.234;-60.334;2024-01-06T00:18:32;27.20;71.90
55771;DHT22;41687;-33.234;-60.334;2024-01-06T00:20:59;27.10;72.90
55771;DHT22;41687;-33.234;-60.334;2024-01-06T00:23:27;27.20;72.80
55771;DHT22;41687;-33.234;-60.334;2024-01-06T00:25:54;27.10;73.70
55771;DHT22;41687;-33.234;-60.334;2024-01-06T00:28:22;27.10;74.40
55771;DHT22;41687;-33.234;-60.334;2024-01-06T00:30:49;27.10;75.40
55771;DHT22;41687;-33.234;-60.334;2024-01-06T00:33:17;27.00;75.80
55771;DHT22;41687;-33.234;-60.334;2024-01-06T00:35:44;27.00;77.30
55771;DHT22;41687;-33.234;-60.334;2024-01-06T00:38:12;27.00;77.20
55771;DHT22;41687;-33.234;-60.334;2024-01-06T00:40:40;27.00;77.00
55771;DHT22;41687;-33.234;-60.334;2024-01-06T00:43:07;27.10;77.70
55771;DHT22;41687;-33.234;-60.334;2024-01-06T00:45:35;27.00;77.20
55771;DHT22;41687;-33.234;-60.334;2024-01-06T00:48:03;27.00;77.40
55771;DHT22;41687;-33.234;-60.334;2024-01-06T00:50:31;27.00;76.20
55771;DHT22;41687;-33.234;-60.334;2024-01-06T00:52:58;27.00;75.60
55771;DHT22;41687;-33.234;-60.334;2024-01-06T00:55:26;26.90;75.70
55771;DHT22;41687;-33.234;-60.334;2024-01-06T00:57:54;26.90;75.50
55771;DHT22;41687;-33.234;-60.334;2024-01-06T01:00:21;26.90;75.40
55771;DHT22;41687;-33.234;-60.334;2024-01-06T01:02:50;26.90;75.00
55771;DHT22;41687;-33.234;-60.334;2024-01-06T01:05:17;26.90;74.40
55771;DHT22;41687;-33.234;-60.334;2024-01-06T01:07:45;26.90;74.80
55771;DHT22;41687;-33.234;-60.334;2024-01-06T01:10:13;26.90;74.70
55771;DHT22;41687;-33.234;-60.334;2024-01-06T01:12:40;26.90;74.80
55771;DHT22;41687;-33.234;-60.334;2024-01-06T01:15:08;26.90;74.90
55771;DHT22;41687;-33.234;-60.334;2024-01-06T01:17:36;26.90;75.50
55771;DHT22;41687;-33.234;-60.334;2024-01-06T01:20:04;26.90;75.80
55771;DHT22;41687;-33.234;-60.334;2024-01-06T01:22:32;26.80;75.70
55771;DHT22;41687;-33.234;-60.334;2024-01-06T01:24:59;26.80;75.60
55771;DHT22;41687;-33.234;-60.334;2024-01-06T01:27:32;26.80;75.90
55771;DHT22;41687;-33.234;-60.334;2024-01-06T01:29:59;26.80;76.80
55771;DHT22;41687;-33.234;-60.334;2024-01-06T01:32:27;26.80;76.80
55771;DHT22;41687;-33.234;-60.334;2024-01-06T01:34:54;26.70;76.70
55771;DHT22;41687;-33.234;-60.334;2024-01-06T01:37:22;26.70;76.80
55771;DHT22;41687;-33.234;-60.334;2024-01-06T01:39:49;26.70;76.70
55771;DHT22;41687;-33.234;-60.334;2024-01-06T01:42:17;26.80;76.40
55771;DHT22;41687;-33.234;-60.334;2024-01-06T01:44:44;26.70;77.30
55771;DHT22;41687;-33.234;-60.334;2024-01-06T01:47:12;26.70;77.10
55771;DHT22;41687;-33.234;-60.334;2024-01-06T01:49:48;26.70;77.60
55771;DHT22;41687;-33.234;-60.334;2024-01-06T01:52:16;26.70;77.50
55771;DHT22;41687;-33.234;-60.334;2024-01-06T01:54:45;26.70;77.80
55771;DHT22;41687;-33.234;-60.334;2024-01-06T01:57:14;26.70;78.50
55771;DHT22;41687;-33.234;-60.334;2024-01-06T01:59:42;26.70;78.40
55771;DHT22;41687;-33.234;-60.334;2024-01-06T02:02:10;26.70;79.10
55771;DHT22;41687;-33.234;-60.334;2024-01-06T02:04:37;26.70;79.30
55771;DHT22;41687;-33.234;-60.334;2024-01-06T02:07:06;26.70;79.50
55771;DHT22;41687;-33.234;-60.334;2024-01-06T02:09:33;26.70;80.00
55771;DHT22;41687;-33.234;-60.334;2024-01-06T02:12:01;26.70;80.70
55771;DHT22;41687;-33.234;-60.334;2024-01-06T02:14:29;26.70;81.50
55771;DHT22;41687;-33.234;-60.334;2024-01-06T02:16:58;26.70;82.00
55771;DHT22;41687;-33.234;-60.334;2024-01-06T02:19:25;26.70;82.50
55771;DHT22;41687;-33.234;-60.334;2024-01-06T02:21:53;26.70;82.80
55771;DHT22;41687;-33.234;-60.334;2024-01-06T02:24:21;26.70;83.30
55771;DHT22;41687;-33.234;-60.334;2024-01-06T02:26:49;26.70;83.30
55771;DHT22;41687;-33.234;-60.334;2024-01-06T02:29:17;26.70;84.30
55771;DHT22;41687;-33.234;-60.334;2024-01-06T02:31:44;26.70;84.10
55771;DHT22;41687;-33.234;-60.334;2024-01-06T02:34:12;26.70;85.60
55771;DHT22;41687;-33.234;-60.334;2024-01-06T02:36:40;26.70;85.10
55771;DHT22;41687;-33.234;-60.334;2024-01-06T02:39:07;26.60;85.90
55771;DHT22;41687;-33.234;-60.334;2024-01-06T02:41:35;26.60;86.20
55771;DHT22;41687;-33.234;-60.334;2024-01-06T02:44:04;26.60;86.90
55771;DHT22;41687;-33.234;-60.334;2024-01-06T02:46:34;26.60;87.00
55771;DHT22;41687;-33.234;-60.334;2024-01-06T02:49:01;26.60;88.40
55771;DHT22;41687;-33.234;-60.334;2024-01-06T02:51:28;26.60;87.90
55771;DHT22;41687;-33.234;-60.334;2024-01-06T02:53:56;26.60;88.30
55771;DHT22;41687;-33.234;-60.334;2024-01-06T02:56:24;26.60;88.40
55771;DHT22;41687;-33.234;-60.334;2024-01-06T02:58:51;26.60;88.60
55771;DHT22;41687;-33.234;-60.334;2024-01-06T03:01:19;26.60;88.10
55771;DHT22;41687;-33.234;-60.334;2024-01-06T03:03:46;26.60;88.60
55771;DHT22;41687;-33.234;-60.334;2024-01-06T03:06:14;26.60;88.40
55771;DHT22;41687;-33.234;-60.334;2024-01-06T03:08:41;26.60;88.10
55771;DHT22;41687;-33.234;-60.334;2024-01-06T03:11:10;26.60;88.70
55771;DHT22;41687;-33.234;-60.334;2024-01-06T03:13:38;26.50;89.50
55771;DHT22;41687;-33.234;-60.334;2024-01-06T03:16:05;26.50;88.40
55771;DHT22;41687;-33.234;-60.334;2024-01-06T03:18:33;26.50;89.20
55771;DHT22;41687;-33.234;-60.334;2024-01-06T03:21:01;26.40;89.50
55771;DHT22;41687;-33.234;-60.334;2024-01-06T03:23:28;26.40;90.00
55771;DHT22;41687;-33.234;-60.334;2024-01-06T03:25:56;26.30;89.30
55771;DHT22;41687;-33.234;-60.334;2024-01-06T03:28:23;26.40;88.50
55771;DHT22;41687;-33.234;-60.334;2024-01-06T03:30:51;26.30;89.20
55771;DHT22;41687;-33.234;-60.334;2024-01-06T03:33:18;26.40;88.10
55771;DHT22;41687;-33.234;-60.334;2024-01-06T03:35:46;26.30;87.20
55771;DHT22;41687;-33.234;-60.334;2024-01-06T03:38:13;26.30;86.70
55771;DHT22;41687;-33.234;-60.334;2024-01-06T03:40:41;26.20;85.40
55771;DHT22;41687;-33.234;-60.334;2024-01-06T03:43:08;26.20;84.10
55771;DHT22;41687;-33.234;-60.334;2024-01-06T03:45:36;26.20;84.10
55771;DHT22;41687;-33.234;-60.334;2024-01-06T03:48:07;26.10;82.50
55771;DHT22;41687;-33.234;-60.334;2024-01-06T03:50:35;26.10;82.30
55771;DHT22;41687;-33.234;-60.334;2024-01-06T03:53:02;26.00;82.50
55771;DHT22;41687;-33.234;-60.334;2024-01-06T03:55:30;26.00;81.80
55771;DHT22;41687;-33.234;-60.334;2024-01-06T03:57:58;26.00;81.40
55771;DHT22;41687;-33.234;-60.334;2024-01-06T04:00:26;25.90;81.00
55771;DHT22;41687;-33.234;-60.334;2024-01-06T04:02:53;25.90;81.00
55771;DHT22;41687;-33.234;-60.334;2024-01-06T04:05:21;25.90;80.30
55771;DHT22;41687;-33.234;-60.334;2024-01-06T04:07:48;25.90;80.10
55771;DHT22;41687;-33.234;-60.334;2024-01-06T04:10:16;25.90;80.30
55771;DHT22;41687;-33.234;-60.334;2024-01-06T04:12:43;25.80;80.40
55771;DHT22;41687;-33.234;-60.334;2024-01-06T04:15:11;25.80;80.60
55771;DHT22;41687;-33.234;-60.334;2024-01-06T04:17:39;25.80;80.70
55771;DHT22;41687;-33.234;-60.334;2024-01-06T04:20:06;25.80;80.60
55771;DHT22;41687;-33.234;-60.334;2024-01-06T04:22:34;25.80;80.50
55771;DHT22;41687;-33.234;-60.334;2024-01-06T04:25:02;25.70;80.40
55771;DHT22;41687;-33.234;-60.334;2024-01-06T04:27:29;25.70;79.80
55771;DHT22;41687;-33.234;-60.334;2024-01-06T04:29:57;25.80;79.70
55771;DHT22;41687;-33.234;-60.334;2024-01-06T04:32:25;25.70;79.20
55771;DHT22;41687;-33.234;-60.334;2024-01-06T04:34:53;25.70;78.50
55771;DHT22;41687;-33.234;-60.334;2024-01-06T04:37:20;25.70;78.10
55771;DHT22;41687;-33.234;-60.334;2024-01-06T04:39:48;25.70;77.10
55771;DHT22;41687;-33.234;-60.334;2024-01-06T04:42:15;25.70;76.50
55771;DHT22;41687;-33.234;-60.334;2024-01-06T04:44:43;25.60;76.40
55771;DHT22;41687;-33.234;-60.334;2024-01-06T04:47:13;25.70;76.20
55771;DHT22;41687;-33.234;-60.334;2024-01-06T04:49:40;25.60;76.10
55771;DHT22;41687;-33.234;-60.334;2024-01-06T04:52:08;25.60;76.80
55771;DHT22;41687;-33.234;-60.334;2024-01-06T04:54:36;25.60;76.80
55771;DHT22;41687;-33.234;-60.334;2024-01-06T04:57:03;25.60;76.20
55771;DHT22;41687;-33.234;-60.334;2024-01-06T04:59:31;25.60;75.90
55771;DHT22;41687;-33.234;-60.334;2024-01-06T05:01:59;25.60;75.70
55771;DHT22;41687;-33.234;-60.334;2024-01-06T05:04:27;25.60;75.60
55771;DHT22;41687;-33.234;-60.334;2024-01-06T05:06:57;25.60;75.80
55771;DHT22;41687;-33.234;-60.334;2024-01-06T05:09:27;25.70;76.50
55771;DHT22;41687;-33.234;-60.334;2024-01-06T05:11:55;25.70;77.30
55771;DHT22;41687;-33.234;-60.334;2024-01-06T05:14:23;25.80;77.40
55771;DHT22;41687;-33.234;-60.334;2024-01-06T05:16:50;25.80;77.50
55771;DHT22;41687;-33.234;-60.334;2024-01-06T05:19:17;25.80;77.40
55771;DHT22;41687;-33.234;-60.334;2024-01-06T05:21:48;25.80;77.20
55771;DHT22;41687;-33.234;-60.334;2024-01-06T05:24:16;25.90;77.30
55771;DHT22;41687;-33.234;-60.334;2024-01-06T05:26:44;25.90;77.40
55771;DHT22;41687;-33.234;-60.334;2024-01-06T05:29:11;25.90;77.50
55771;DHT22;41687;-33.234;-60.334;2024-01-06T05:31:39;25.80;77.70
55771;DHT22;41687;-33.234;-60.334;2024-01-06T05:34:07;25.80;77.40
55771;DHT22;41687;-33.234;-60.334;2024-01-06T05:36:34;25.80;77.10
55771;DHT22;41687;-33.234;-60.334;2024-01-06T05:39:02;25.90;76.90
55771;DHT22;41687;-33.234;-60.334;2024-01-06T05:41:30;25.90;77.00
55771;DHT22;41687;-33.234;-60.334;2024-01-06T05:44:04;25.90;77.10
55771;DHT22;41687;-33.234;-60.334;2024-01-06T05:46:31;25.90;77.10
55771;DHT22;41687;-33.234;-60.334;2024-01-06T05:48:59;26.00;77.20
55771;DHT22;41687;-33.234;-60.334;2024-01-06T05:51:26;26.00;77.30
55771;DHT22;41687;-33.234;-60.334;2024-01-06T05:53:54;26.00;77.20
55771;DHT22;41687;-33.234;-60.334;2024-01-06T05:56:25;26.00;77.30
55771;DHT22;41687;-33.234;-60.334;2024-01-06T05:58:54;26.10;77.20
55771;DHT22;41687;-33.234;-60.334;2024-01-06T06:01:22;26.10;77.50
55771;DHT22;41687;-33.234;-60.334;2024-01-06T06:03:50;26.00;77.90
55771;DHT22;41687;-33.234;-60.334;2024-01-06T06:06:17;26.00;78.10
55771;DHT22;41687;-33.234;-60.334;2024-01-06T06:08:46;26.00;78.30
55771;DHT22;41687;-33.234;-60.334;2024-01-06T06:11:15;26.00;78.20
55771;DHT22;41687;-33.234;-60.334;2024-01-06T06:13:43;26.00;78.30
55771;DHT22;41687;-33.234;-60.334;2024-01-06T06:16:11;26.00;77.80
55771;DHT22;41687;-33.234;-60.334;2024-01-06T06:18:40;26.00;78.10
55771;DHT22;41687;-33.234;-60.334;2024-01-06T06:21:08;25.90;77.80
55771;DHT22;41687;-33.234;-60.334;2024-01-06T06:23:35;25.80;76.80
55771;DHT22;41687;-33.234;-60.334;2024-01-06T06:26:09;25.70;76.60
55771;DHT22;41687;-33.234;-60.334;2024-01-06T06:28:37;25.60;76.70
55771;DHT22;41687;-33.234;-60.334;2024-01-06T06:31:06;25.60;76.90
55771;DHT22;41687;-33.234;-60.334;2024-01-06T06:33:34;25.60;77.00
55771;DHT22;41687;-33.234;-60.334;2024-01-06T06:36:01;25.60;76.80
55771;DHT22;41687;-33.234;-60.334;2024-01-06T06:38:30;25.70;77.00
55771;DHT22;41687;-33.234;-60.334;2024-01-06T06:40:57;25.70;77.00
55771;DHT22;41687;-33.234;-60.334;2024-01-06T06:43:25;25.70;77.00
55771;DHT22;41687;-33.234;-60.334;2024-01-06T06:45:52;25.70;76.50
55771;DHT22;41687;-33.234;-60.334;2024-01-06T06:48:20;25.70;76.50
55771;DHT22;41687;-33.234;-60.334;2024-01-06T06:50:49;25.70;76.70
55771;DHT22;41687;-33.234;-60.334;2024-01-06T06:53:17;25.70;77.10
55771;DHT22;41687;-33.234;-60.334;2024-01-06T06:55:44;25.60;77.40
55771;DHT22;41687;-33.234;-60.334;2024-01-06T06:58:12;25.60;77.50
55771;DHT22;41687;-33.234;-60.334;2024-01-06T07:00:39;25.60;77.90
55771;DHT22;41687;-33.234;-60.334;2024-01-06T07:03:07;25.60;78.10
55771;DHT22;41687;-33.234;-60.334;2024-01-06T07:05:34;25.50;78.50
55771;DHT22;41687;-33.234;-60.334;2024-01-06T07:08:02;25.50;79.00
55771;DHT22;41687;-33.234;-60.334;2024-01-06T07:10:30;25.50;79.30
55771;DHT22;41687;-33.234;-60.334;2024-01-06T07:12:58;25.50;79.30
55771;DHT22;41687;-33.234;-60.334;2024-01-06T07:15:25;25.40;79.10
55771;DHT22;41687;-33.234;-60.334;2024-01-06T07:17:53;25.40;79.30
55771;DHT22;41687;-33.234;-60.334;2024-01-06T07:20:20;25.30;79.10
55771;DHT22;41687;-33.234;-60.334;2024-01-06T07:22:48;25.40;79.30
55771;DHT22;41687;-33.234;-60.334;2024-01-06T07:25:15;25.40;79.30
55771;DHT22;41687;-33.234;-60.334;2024-01-06T07:27:43;25.40;79.10
55771;DHT22;41687;-33.234;-60.334;2024-01-06T07:30:11;25.40;78.40
55771;DHT22;41687;-33.234;-60.334;2024-01-06T07:32:38;25.30;78.70
55771;DHT22;41687;-33.234;-60.334;2024-01-06T07:35:06;25.30;79.10
55771;DHT22;41687;-33.234;-60.334;2024-01-06T07:37:34;25.30;79.10
55771;DHT22;41687;-33.234;-60.334;2024-01-06T07:40:01;25.20;79.30
55771;DHT22;41687;-33.234;-60.334;2024-01-06T07:42:29;25.20;79.20
55771;DHT22;41687;-33.234;-60.334;2024-01-06T07:44:56;25.20;78.80
55771;DHT22;41687;-33.234;-60.334;2024-01-06T07:47:25;25.20;78.80
55771;DHT22;41687;-33.234;-60.334;2024-01-06T07:49:53;25.30;79.40
55771;DHT22;41687;-33.234;-60.334;2024-01-06T07:52:21;25.30;80.00
55771;DHT22;41687;-33.234;-60.334;2024-01-06T07:54:48;25.30;79.90
55771;DHT22;41687;-33.234;-60.334;2024-01-06T07:57:16;25.30;80.20
55771;DHT22;41687;-33.234;-60.334;2024-01-06T07:59:44;25.40;80.50
55771;DHT22;41687;-33.234;-60.334;2024-01-06T08:02:11;25.40;80.60
55771;DHT22;41687;-33.234;-60.334;2024-01-06T08:04:39;25.40;80.80
55771;DHT22;41687;-33.234;-60.334;2024-01-06T08:07:07;25.40;80.70
55771;DHT22;41687;-33.234;-60.334;2024-01-06T08:09:34;25.50;81.20
55771;DHT22;41687;-33.234;-60.334;2024-01-06T08:12:02;25.50;81.10
55771;DHT22;41687;-33.234;-60.334;2024-01-06T08:14:30;25.60;81.20
55771;DHT22;41687;-33.234;-60.334;2024-01-06T08:16:58;25.60;81.50
55771;DHT22;41687;-33.234;-60.334;2024-01-06T08:19:25;25.60;82.10
55771;DHT22;41687;-33.234;-60.334;2024-01-06T08:21:55;25.60;81.90
55771;DHT22;41687;-33.234;-60.334;2024-01-06T08:24:22;25.60;82.40
55771;DHT22;41687;-33.234;-60.334;2024-01-06T08:26:50;25.50;83.10
55771;DHT22;41687;-33.234;-60.334;2024-01-06T08:29:18;25.50;83.90
55771;DHT22;41687;-33.234;-60.334;2024-01-06T08:31:46;25.50;84.70
55771;DHT22;41687;-33.234;-60.334;2024-01-06T08:34:14;25.50;84.30
55771;DHT22;41687;-33.234;-60.334;2024-01-06T08:36:42;25.50;84.80
55771;DHT22;41687;-33.234;-60.334;2024-01-06T08:39:09;25.40;85.00
55771;DHT22;41687;-33.234;-60.334;2024-01-06T08:41:37;25.40;84.80
55771;DHT22;41687;-33.234;-60.334;2024-01-06T08:44:04;25.40;84.80
55771;DHT22;41687;-33.234;-60.334;2024-01-06T08:46:32;25.40;85.00
55771;DHT22;41687;-33.234;-60.334;2024-01-06T08:49:00;25.40;84.50
55771;DHT22;41687;-33.234;-60.334;2024-01-06T08:51:28;25.40;84.60
55771;DHT22;41687;-33.234;-60.334;2024-01-06T08:53:55;25.40;84.30
55771;DHT22;41687;-33.234;-60.334;2024-01-06T08:56:23;25.30;84.30
55771;DHT22;41687;-33.234;-60.334;2024-01-06T08:58:50;25.30;84.40
55771;DHT22;41687;-33.234;-60.334;2024-01-06T09:01:18;25.30;84.60
55771;DHT22;41687;-33.234;-60.334;2024-01-06T09:03:45;25.30;84.70
55771;DHT22;41687;-33.234;-60.334;2024-01-06T09:06:13;25.30;84.30
55771;DHT22;41687;-33.234;-60.334;2024-01-06T09:08:41;25.20;84.40
55771;DHT22;41687;-33.234;-60.334;2024-01-06T09:11:08;25.20;84.60
55771;DHT22;41687;-33.234;-60.334;2024-01-06T09:13:36;25.20;84.60
55771;DHT22;41687;-33.234;-60.334;2024-01-06T09:16:04;25.20;84.10
55771;DHT22;41687;-33.234;-60.334;2024-01-06T09:18:31;25.20;84.00
55771;DHT22;41687;-33.234;-60.334;2024-01-06T09:20:59;25.20;83.90
55771;DHT22;41687;-33.234;-60.334;2024-01-06T09:23:26;25.20;83.80
55771;DHT22;41687;-33.234;-60.334;2024-01-06T09:25:54;25.20;83.40
55771;DHT22;41687;-33.234;-60.334;2024-01-06T09:28:22;25.20;83.30
55771;DHT22;41687;-33.234;-60.334;2024-01-06T09:30:49;25.20;83.20
55771;DHT22;41687;-33.234;-60.334;2024-01-06T09:33:19;25.10;82.70
55771;DHT22;41687;-33.234;-60.334;2024-01-06T09:35:47;25.10;82.70
55771;DHT22;41687;-33.234;-60.334;2024-01-06T09:38:14;25.00;82.50
55771;DHT22;41687;-33.234;-60.334;2024-01-06T09:40:43;25.00;82.50
55771;DHT22;41687;-33.234;-60.334;2024-01-06T09:43:15;24.90;82.80
55771;DHT22;41687;-33.234;-60.334;2024-01-06T09:45:45;24.90;82.70
55771;DHT22;41687;-33.234;-60.334;2024-01-06T09:48:17;24.90;83.10
55771;DHT22;41687;-33.234;-60.334;2024-01-06T09:50:45;24.90;83.00
55771;DHT22;41687;-33.234;-60.334;2024-01-06T09:53:13;24.90;83.60
55771;DHT22;41687;-33.234;-60.334;2024-01-06T09:55:41;24.90;83.70
55771;DHT22;41687;-33.234;-60.334;2024-01-06T09:58:10;24.80;84.00
55771;DHT22;41687;-33.234;-60.334;2024-01-06T10:00:37;24.80;85.30
55771;DHT22;41687;-33.234;-60.334;2024-01-06T10:03:05;24.80;86.50
55771;DHT22;41687;-33.234;-60.334;2024-01-06T10:05:35;24.80;86.90
55771;DHT22;41687;-33.234;-60.334;2024-01-06T10:08:03;24.70;87.40
55771;DHT22;41687;-33.234;-60.334;2024-01-06T10:10:32;24.60;89.20
55771;DHT22;41687;-33.234;-60.334;2024-01-06T10:13:01;24.60;89.70
55771;DHT22;41687;-33.234;-60.334;2024-01-06T10:15:28;24.50;90.60
55771;DHT22;41687;-33.234;-60.334;2024-01-06T10:17:57;24.50;90.90
55771;DHT22;41687;-33.234;-60.334;2024-01-06T10:20:25;24.40;91.30
55771;DHT22;41687;-33.234;-60.334;2024-01-06T10:22:53;24.40;91.40
55771;DHT22;41687;-33.234;-60.334;2024-01-06T10:25:23;24.30;91.20
55771;DHT22;41687;-33.234;-60.334;2024-01-06T10:27:53;24.30;91.50
55771;DHT22;41687;-33.234;-60.334;2024-01-06T10:30:21;24.20;91.90
55771;DHT22;41687;-33.234;-60.334;2024-01-06T10:32:50;24.10;91.90
55771;DHT22;41687;-33.234;-60.334;2024-01-06T10:35:18;24.00;92.70
55771;DHT22;41687;-33.234;-60.334;2024-01-06T10:37:47;24.00;92.80
55771;DHT22;41687;-33.234;-60.334;2024-01-06T10:40:16;24.00;92.80
55771;DHT22;41687;-33.234;-60.334;2024-01-06T10:42:45;24.00;92.10
55771;DHT22;41687;-33.234;-60.334;2024-01-06T10:45:14;24.00;90.40
55771;DHT22;41687;-33.234;-60.334;2024-01-06T10:47:49;23.90;88.10
55771;DHT22;41687;-33.234;-60.334;2024-01-06T10:50:18;23.90;86.40
55771;DHT22;41687;-33.234;-60.334;2024-01-06T10:52:46;23.80;83.30
55771;DHT22;41687;-33.234;-60.334;2024-01-06T10:55:17;23.80;79.70
55771;DHT22;41687;-33.234;-60.334;2024-01-06T10:57:49;23.70;77.90
55771;DHT22;41687;-33.234;-60.334;2024-01-06T11:00:18;23.60;77.20
55771;DHT22;41687;-33.234;-60.334;2024-01-06T11:02:46;23.50;77.60
55771;DHT22;41687;-33.234;-60.334;2024-01-06T11:05:15;23.60;78.50
55771;DHT22;41687;-33.234;-60.334;2024-01-06T11:07:43;23.60;78.70
55771;DHT22;41687;-33.234;-60.334;2024-01-06T11:10:17;23.50;79.30
55771;DHT22;41687;-33.234;-60.334;2024-01-06T11:12:49;23.60;78.40
55771;DHT22;41687;-33.234;-60.334;2024-01-06T11:15:49;23.70;79.20
55771;DHT22;41687;-33.234;-60.334;2024-01-06T11:18:37;23.60;78.70
55771;DHT22;41687;-33.234;-60.334;2024-01-06T11:21:23;23.60;78.70
55771;DHT22;41687;-33.234;-60.334;2024-01-06T11:24:15;23.70;84.30
55771;DHT22;41687;-33.234;-60.334;2024-01-06T11:26:56;23.60;81.60
55771;DHT22;41687;-33.234;-60.334;2024-01-06T11:29:24;23.70;82.20
55771;DHT22;41687;-33.234;-60.334;2024-01-06T11:34:49;23.60;83.90
55771;DHT22;41687;-33.234;-60.334;2024-01-06T11:37:24;23.40;85.50
55771;DHT22;41687;-33.234;-60.334;2024-01-06T11:39:52;23.30;87.00
55771;DHT22;41687;-33.234;-60.334;2024-01-06T11:42:19;23.30;87.10
55771;DHT22;41687;-33.234;-60.334;2024-01-06T11:44:50;23.30;87.70
55771;DHT22;41687;-33.234;-60.334;2024-01-06T11:47:18;23.40;88.10
55771;DHT22;41687;-33.234;-60.334;2024-01-06T11:49:54;23.40;88.60
55771;DHT22;41687;-33.234;-60.334;2024-01-06T11:52:23;23.50;90.00
55771;DHT22;41687;-33.234;-60.334;2024-01-06T11:54:56;23.50;87.40
55771;DHT22;41687;-33.234;-60.334;2024-01-06T11:57:26;23.50;87.40
55771;DHT22;41687;-33.234;-60.334;2024-01-06T11:59:54;23.50;88.70
55771;DHT22;41687;-33.234;-60.334;2024-01-06T12:02:22;23.50;87.30
55771;DHT22;41687;-33.234;-60.334;2024-01-06T12:04:50;23.50;86.80
55771;DHT22;41687;-33.234;-60.334;2024-01-06T12:07:20;23.60;86.80
55771;DHT22;41687;-33.234;-60.334;2024-01-06T12:09:50;23.60;85.70
55771;DHT22;41687;-33.234;-60.334;2024-01-06T12:12:18;23.70;86.00
55771;DHT22;41687;-33.234;-60.334;2024-01-06T12:14:46;23.60;84.10
55771;DHT22;41687;-33.234;-60.334;2024-01-06T12:17:14;23.70;84.40
55771;DHT22;41687;-33.234;-60.334;2024-01-06T12:19:42;23.80;84.40
55771;DHT22;41687;-33.234;-60.334;2024-01-06T12:22:14;23.80;85.20
55771;DHT22;41687;-33.234;-60.334;2024-01-06T12:24:42;23.90;86.30
55771;DHT22;41687;-33.234;-60.334;2024-01-06T12:27:10;23.90;87.50
55771;DHT22;41687;-33.234;-60.334;2024-01-06T12:29:41;24.00;88.90
55771;DHT22;41687;-33.234;-60.334;2024-01-06T12:32:12;24.00;90.30
55771;DHT22;41687;-33.234;-60.334;2024-01-06T12:34:42;24.00;91.20
55771;DHT22;41687;-33.234;-60.334;2024-01-06T12:37:09;24.10;92.20
55771;DHT22;41687;-33.234;-60.334;2024-01-06T12:39:37;24.10;92.50
55771;DHT22;41687;-33.234;-60.334;2024-01-06T12:42:05;24.20;93.10
55771;DHT22;41687;-33.234;-60.334;2024-01-06T12:44:34;24.30;93.50
55771;DHT22;41687;-33.234;-60.334;2024-01-06T12:47:05;24.30;93.90
55771;DHT22;41687;-33.234;-60.334;2024-01-06T12:49:33;24.30;93.70
55771;DHT22;41687;-33.234;-60.334;2024-01-06T12:52:00;24.30;93.70
55771;DHT22;41687;-33.234;-60.334;2024-01-06T12:54:27;24.30;93.80
55771;DHT22;41687;-33.234;-60.334;2024-01-06T12:56:55;24.20;93.70
55771;DHT22;41687;-33.234;-60.334;2024-01-06T12:59:22;24.20;93.90
55771;DHT22;41687;-33.234;-60.334;2024-01-06T13:01:50;24.30;93.60
55771;DHT22;41687;-33.234;-60.334;2024-01-06T13:04:18;24.20;93.00
55771;DHT22;41687;-33.234;-60.334;2024-01-06T13:06:45;24.30;92.90
55771;DHT22;41687;-33.234;-60.334;2024-01-06T13:09:13;24.30;92.80
55771;DHT22;41687;-33.234;-60.334;2024-01-06T13:11:43;24.40;92.50
55771;DHT22;41687;-33.234;-60.334;2024-01-06T13:14:13;24.30;92.30
55771;DHT22;41687;-33.234;-60.334;2024-01-06T13:16:40;24.40;92.10
55771;DHT22;41687;-33.234;-60.334;2024-01-06T13:19:08;24.30;91.90
55771;DHT22;41687;-33.234;-60.334;2024-01-06T13:21:36;24.40;91.50
55771;DHT22;41687;-33.234;-60.334;2024-01-06T13:24:07;24.40;91.50
55771;DHT22;41687;-33.234;-60.334;2024-01-06T13:26:34;24.50;91.30
55771;DHT22;41687;-33.234;-60.334;2024-01-06T13:29:03;24.60;91.10
55771;DHT22;41687;-33.234;-60.334;2024-01-06T13:31:30;24.60;91.10
55771;DHT22;41687;-33.234;-60.334;2024-01-06T13:33:59;24.70;90.80
55771;DHT22;41687;-33.234;-60.334;2024-01-06T13:36:26;24.60;91.10
55771;DHT22;41687;-33.234;-60.334;2024-01-06T13:38:55;24.60;91.40
55771;DHT22;41687;-33.234;-60.334;2024-01-06T13:41:22;24.60;92.00
55771;DHT22;41687;-33.234;-60.334;2024-01-06T13:43:50;24.60;91.20
55771;DHT22;41687;-33.234;-60.334;2024-01-06T13:46:17;24.60;91.30
55771;DHT22;41687;-33.234;-60.334;2024-01-06T13:48:45;24.60;91.20
55771;DHT22;41687;-33.234;-60.334;2024-01-06T13:51:13;24.60;90.90
55771;DHT22;41687;-33.234;-60.334;2024-01-06T13:53:41;24.50;90.80
55771;DHT22;41687;-33.234;-60.334;2024-01-06T13:56:08;24.60;91.00
55771;DHT22;41687;-33.234;-60.334;2024-01-06T13:58:36;24.70;90.90
55771;DHT22;41687;-33.234;-60.334;2024-01-06T14:01:05;24.70;90.60
55771;DHT22;41687;-33.234;-60.334;2024-01-06T14:03:32;24.70;89.90
55771;DHT22;41687;-33.234;-60.334;2024-01-06T14:06:00;24.70;89.30
55771;DHT22;41687;-33.234;-60.334;2024-01-06T14:08:28;24.70;89.60
55771;DHT22;41687;-33.234;-60.334;2024-01-06T14:10:55;24.70;88.80
55771;DHT22;41687;-33.234;-60.334;2024-01-06T14:13:23;24.70;89.70
55771;DHT22;41687;-33.234;-60.334;2024-01-06T14:15:51;24.60;89.10
55771;DHT22;41687;-33.234;-60.334;2024-01-06T14:18:19;24.60;89.70
55771;DHT22;41687;-33.234;-60.334;2024-01-06T14:20:46;24.60;89.10
55771;DHT22;41687;-33.234;-60.334;2024-01-06T14:23:15;24.60;88.80
55771;DHT22;41687;-33.234;-60.334;2024-01-06T14:25:42;24.70;88.00
55771;DHT22;41687;-33.234;-60.334;2024-01-06T14:28:10;24.70;86.80
55771;DHT22;41687;-33.234;-60.334;2024-01-06T14:30:38;24.60;86.60
55771;DHT22;41687;-33.234;-60.334;2024-01-06T14:33:06;24.70;86.20
55771;DHT22;41687;-33.234;-60.334;2024-01-06T14:35:33;24.70;86.60
55771;DHT22;41687;-33.234;-60.334;2024-01-06T14:38:01;24.70;87.00
55771;DHT22;41687;-33.234;-60.334;2024-01-06T14:40:28;24.80;87.20
55771;DHT22;41687;-33.234;-60.334;2024-01-06T14:42:56;24.80;85.80
55771;DHT22;41687;-33.234;-60.334;2024-01-06T14:45:24;24.90;85.10
55771;DHT22;41687;-33.234;-60.334;2024-01-06T14:47:53;24.90;84.70
55771;DHT22;41687;-33.234;-60.334;2024-01-06T14:50:21;24.90;82.50
55771;DHT22;41687;-33.234;-60.334;2024-01-06T14:52:48;24.90;82.30
55771;DHT22;41687;-33.234;-60.334;2024-01-06T14:55:16;25.00;82.10
55771;DHT22;41687;-33.234;-60.334;2024-01-06T14:57:44;25.10;81.80